createdAt,value
2023-04-24T00:00:25.448Z,98.28
2023-04-24T00:01:25.461Z,98.39
2023-04-24T00:02:25.633Z,98.39
2023-04-24T00:03:25.547Z,98.39
2023-04-24T00:04:25.509Z,98.39
2023-04-24T00:05:25.388Z,98.28
2023-04-24T00:06:25.383Z,98.39
2023-04-24T00:07:25.387Z,98.39
2023-04-24T00:08:25.387Z,98.49
2023-04-24T00:09:25.363Z,98.39
2023-04-24T00:10:25.343Z,98.39
2023-04-24T00:11:25.331Z,98.39
2023-04-24T00:12:25.341Z,98.39
2023-04-24T00:13:25.304Z,98.39
2023-04-24T00:14:25.320Z,98.39
2023-04-24T00:15:25.278Z,98.39
2023-04-24T00:16:25.386Z,98.39
2023-04-24T00:17:25.330Z,98.39
2023-04-24T00:18:25.247Z,98.39
2023-04-24T00:19:25.245Z,98.39
2023-04-24T00:20:25.248Z,98.39
2023-04-24T00:21:25.212Z,98.39
2023-04-24T00:22:25.215Z,98.39
2023-04-24T00:23:25.188Z,98.28
2023-04-24T00:24:25.181Z,98.28
2023-04-24T00:25:25.179Z,98.28
2023-04-24T00:26:25.177Z,98.28
2023-04-24T00:27:25.173Z,98.28
2023-04-24T00:28:25.126Z,98.28
2023-04-24T00:29:25.123Z,98.28
2023-04-24T00:30:25.114Z,98.18
2023-04-24T00:31:25.133Z,98.18
2023-04-24T00:32:25.137Z,98.18
2023-04-24T00:33:25.078Z,98.18
2023-04-24T00:34:25.070Z,98.13
2023-04-24T00:35:25.060Z,98.13
2023-04-24T00:36:25.052Z,98.13
2023-04-24T00:37:25.070Z,98.13
2023-04-24T00:38:25.031Z,98.13
2023-04-24T00:39:25.016Z,98.13
2023-04-24T00:40:25.007Z,98.13
2023-04-24T00:41:24.985Z,98.07
2023-04-24T00:42:24.995Z,98.07
2023-04-24T00:43:24.969Z,98.07
2023-04-24T00:44:24.952Z,98.07
2023-04-24T00:45:24.956Z,97.97
2023-04-24T00:46:24.958Z,97.97
2023-04-24T00:47:24.942Z,97.97
2023-04-24T00:48:24.910Z,97.97
2023-04-24T00:49:24.898Z,98.11
2023-04-24T00:50:24.893Z,98.11
2023-04-24T00:51:24.874Z,98.11
2023-04-24T00:52:24.910Z,98.11
2023-04-24T00:53:24.870Z,98.11
2023-04-24T00:54:24.857Z,98.22
2023-04-24T00:55:24.834Z,98.22
2023-04-24T00:56:24.828Z,98.22
2023-04-24T00:57:24.832Z,98.11
2023-04-24T00:58:24.811Z,98.22
2023-04-24T00:59:24.792Z,98.27
2023-04-24T01:00:24.777Z,98.47
2023-04-24T01:01:24.807Z,98.47
2023-04-24T01:02:25.628Z,98.47
2023-04-24T01:03:24.837Z,98.57
2023-04-24T01:04:24.854Z,98.57
2023-04-24T01:05:24.739Z,98.68
2023-04-24T01:06:24.714Z,98.68
2023-04-24T01:07:24.733Z,98.57
2023-04-24T01:08:24.692Z,98.68
2023-04-24T01:09:24.680Z,98.47
2023-04-24T01:10:24.661Z,98.47
2023-04-24T01:11:24.661Z,98.47
2023-04-24T01:12:24.662Z,98.52
2023-04-24T01:13:24.639Z,98.41
2023-04-24T01:14:24.629Z,98.36
2023-04-24T01:15:24.616Z,98.47
2023-04-24T01:16:24.753Z,98.52
2023-04-24T01:17:24.636Z,98.52
2023-04-24T01:18:24.594Z,98.57
2023-04-24T01:19:24.573Z,98.57
2023-04-24T01:20:24.573Z,98.57
2023-04-24T01:21:24.562Z,98.57
2023-04-24T01:22:24.569Z,98.57
2023-04-24T01:23:24.528Z,98.57
2023-04-24T01:24:24.511Z,98.57
2023-04-24T01:25:24.503Z,98.68
2023-04-24T01:26:24.530Z,98.68
2023-04-24T01:27:24.534Z,98.68
2023-04-24T01:28:24.480Z,98.68
2023-04-24T01:29:24.497Z,98.68
2023-04-24T01:30:24.480Z,98.68
2023-04-24T01:31:24.468Z,98.77
2023-04-24T01:32:24.460Z,98.77
2023-04-24T01:33:24.417Z,98.77
2023-04-24T01:34:24.414Z,98.88
2023-04-24T01:35:24.399Z,98.98
2023-04-24T01:36:26.562Z,98.98
2023-04-24T01:37:24.406Z,99.08
2023-04-24T01:38:24.365Z,98.98
2023-04-24T01:39:24.361Z,99.08
2023-04-24T01:40:24.351Z,99.08
2023-04-24T01:41:24.326Z,99.08
2023-04-24T01:42:24.342Z,99.08
2023-04-24T01:43:24.304Z,99.23
2023-04-24T01:44:24.386Z,99.23
2023-04-24T01:45:24.290Z,99.23
2023-04-24T01:46:24.323Z,99.02
2023-04-24T01:47:24.296Z,99.02
2023-04-24T01:48:24.257Z,99.13
2023-04-24T01:49:24.241Z,99.02
2023-04-24T01:50:24.249Z,99.02
2023-04-24T01:51:24.226Z,98.93
2023-04-24T01:52:24.235Z,98.97
2023-04-24T01:53:24.190Z,99.07
2023-04-24T01:54:24.206Z,98.97
2023-04-24T01:55:24.179Z,99.18
2023-04-24T01:56:24.166Z,99.48
2023-04-24T01:57:24.165Z,99.38
2023-04-24T01:58:24.142Z,99.27
2023-04-24T01:59:24.136Z,99.27
2023-04-24T02:00:24.120Z,99.18
2023-04-24T02:01:24.131Z,99.32
2023-04-24T02:02:24.251Z,99.32
2023-04-24T02:03:24.290Z,99.43
2023-04-24T02:04:24.129Z,99.43
2023-04-24T02:05:24.070Z,99.43
2023-04-24T02:06:24.046Z,99.43
2023-04-24T02:07:24.067Z,99.43
2023-04-24T02:08:24.037Z,99.43
2023-04-24T02:09:24.021Z,99.43
2023-04-24T02:10:24.023Z,99.32
2023-04-24T02:11:24.004Z,99.22
2023-04-24T02:12:24.003Z,99.11
2023-04-24T02:13:23.969Z,99.02
2023-04-24T02:14:23.968Z,99.02
2023-04-24T02:15:23.954Z,99.11
2023-04-24T02:16:23.969Z,99.02
2023-04-24T02:17:24.042Z,99.06
2023-04-24T02:18:23.920Z,99.06
2023-04-24T02:19:23.906Z,98.86
2023-04-24T02:20:23.889Z,98.86
2023-04-24T02:21:23.877Z,98.86
2023-04-24T02:22:23.870Z,98.86
2023-04-24T02:23:23.871Z,98.65
2023-04-24T02:24:23.862Z,98.75
2023-04-24T02:25:23.844Z,98.86
2023-04-24T02:26:23.835Z,98.86
2023-04-24T02:27:23.806Z,98.86
2023-04-24T02:28:23.824Z,98.80
2023-04-24T02:29:23.790Z,98.90
2023-04-24T02:30:23.778Z,98.90
2023-04-24T02:31:23.893Z,99.01
2023-04-24T02:32:23.753Z,99.01
2023-04-24T02:33:23.761Z,99.11
2023-04-24T02:34:23.726Z,99.11
2023-04-24T02:35:23.804Z,99.01
2023-04-24T02:36:23.718Z,99.01
2023-04-24T02:37:23.697Z,98.90
2023-04-24T02:38:23.712Z,99.01
2023-04-24T02:39:23.674Z,99.01
2023-04-24T02:40:23.666Z,99.11
2023-04-24T02:41:23.647Z,99.01
2023-04-24T02:42:23.652Z,99.01
2023-04-24T02:43:23.707Z,99.01
2023-04-24T02:44:23.644Z,99.11
2023-04-24T02:45:23.609Z,98.90
2023-04-24T02:46:23.673Z,98.90
2023-04-24T02:47:23.628Z,98.95
2023-04-24T02:48:23.589Z,98.95
2023-04-24T02:49:23.559Z,98.85
2023-04-24T02:50:23.557Z,98.95
2023-04-24T02:51:23.556Z,98.95
2023-04-24T02:52:23.516Z,98.85
2023-04-24T02:53:23.541Z,98.85
2023-04-24T02:54:23.498Z,99.15
2023-04-24T02:55:23.488Z,99.05
2023-04-24T02:56:23.478Z,99.15
2023-04-24T02:57:23.498Z,99.15
2023-04-24T02:58:23.486Z,99.05
2023-04-24T02:59:23.452Z,99.05
2023-04-24T03:00:23.433Z,98.95
2023-04-24T03:01:23.498Z,98.95
2023-04-24T03:02:23.515Z,98.95
2023-04-24T03:03:23.499Z,98.95
2023-04-24T03:04:23.513Z,98.95
2023-04-24T03:05:23.393Z,98.95
2023-04-24T03:06:23.366Z,98.95
2023-04-24T03:07:23.361Z,98.95
2023-04-24T03:08:23.360Z,98.99
2023-04-24T03:09:23.331Z,99.10
2023-04-24T03:10:23.331Z,99.10
2023-04-24T03:11:23.318Z,98.99
2023-04-24T03:12:23.304Z,98.90
2023-04-24T03:13:23.310Z,98.99
2023-04-24T03:14:23.274Z,99.10
2023-04-24T03:15:23.269Z,99.10
2023-04-24T03:16:23.313Z,99.10
2023-04-24T03:17:23.251Z,98.99
2023-04-24T03:18:23.268Z,98.99
2023-04-24T03:19:23.223Z,98.99
2023-04-24T03:20:23.211Z,98.94
2023-04-24T03:21:23.204Z,98.94
2023-04-24T03:22:23.197Z,99.04
2023-04-24T03:23:23.210Z,99.04
2023-04-24T03:24:23.169Z,99.04
2023-04-24T03:25:23.199Z,98.94
2023-04-24T03:26:23.159Z,98.83
2023-04-24T03:27:23.141Z,98.83
2023-04-24T03:28:23.140Z,98.74
2023-04-24T03:29:23.122Z,98.74
2023-04-24T03:30:23.102Z,98.74
2023-04-24T03:31:23.131Z,98.53
2023-04-24T03:32:23.097Z,98.53
2023-04-24T03:33:23.092Z,98.53
2023-04-24T03:34:23.085Z,98.43
2023-04-24T03:35:23.057Z,98.43
2023-04-24T03:36:23.041Z,98.43
2023-04-24T03:37:23.031Z,98.33
2023-04-24T03:38:23.053Z,98.22
2023-04-24T03:39:23.012Z,98.22
2023-04-24T03:40:22.994Z,98.27
2023-04-24T03:41:22.992Z,98.27
2023-04-24T03:42:22.980Z,98.37
2023-04-24T03:43:22.972Z,98.58
2023-04-24T03:44:22.950Z,98.68
2023-04-24T03:45:22.959Z,98.68
2023-04-24T03:46:23.093Z,98.88
2023-04-24T03:47:22.947Z,98.78
2023-04-24T03:48:22.930Z,98.78
2023-04-24T03:49:22.925Z,98.68
2023-04-24T03:50:22.886Z,98.58
2023-04-24T03:51:22.880Z,98.47
2023-04-24T03:52:22.865Z,98.47
2023-04-24T03:53:22.865Z,98.37
2023-04-24T03:54:22.845Z,98.47
2023-04-24T03:55:22.827Z,98.37
2023-04-24T03:56:22.815Z,98.47
2023-04-24T03:57:22.798Z,98.37
2023-04-24T03:58:22.808Z,98.47
2023-04-24T03:59:22.788Z,98.47
2023-04-24T04:00:22.778Z,98.58
2023-04-24T04:01:22.767Z,98.68
2023-04-24T04:02:22.850Z,98.68
2023-04-24T04:03:22.885Z,98.68
2023-04-24T04:04:22.943Z,98.78
2023-04-24T04:05:22.864Z,98.68
2023-04-24T04:06:22.740Z,98.58
2023-04-24T04:07:22.712Z,98.58
2023-04-24T04:08:22.706Z,98.47
2023-04-24T04:09:22.709Z,98.47
2023-04-24T04:10:22.656Z,98.47
2023-04-24T04:11:22.654Z,98.27
2023-04-24T04:12:22.661Z,98.16
2023-04-24T04:13:22.652Z,98.11
2023-04-24T04:14:22.665Z,98.21
2023-04-24T04:15:22.606Z,98.11
2023-04-24T04:16:22.637Z,98.21
2023-04-24T04:17:22.607Z,98.21
2023-04-24T04:18:22.605Z,98.21
2023-04-24T04:19:22.565Z,98.21
2023-04-24T04:20:22.562Z,98.32
2023-04-24T04:21:22.663Z,98.32
2023-04-24T04:22:22.529Z,98.42
2023-04-24T04:23:22.535Z,98.52
2023-04-24T04:24:22.513Z,98.52
2023-04-24T04:25:24.482Z,98.42
2023-04-24T04:26:22.481Z,98.52
2023-04-24T04:27:22.526Z,98.52
2023-04-24T04:28:22.506Z,98.62
2023-04-24T04:29:22.476Z,98.72
2023-04-24T04:30:22.456Z,98.83
2023-04-24T04:31:22.451Z,98.88
2023-04-24T04:32:22.418Z,98.88
2023-04-24T04:33:22.430Z,98.99
2023-04-24T04:34:22.404Z,98.99
2023-04-24T04:35:23.140Z,98.99
2023-04-24T04:36:22.375Z,98.94
2023-04-24T04:37:22.364Z,98.94
2023-04-24T04:38:22.371Z,99.15
2023-04-24T04:39:22.338Z,99.25
2023-04-24T04:40:22.342Z,99.25
2023-04-24T04:41:22.322Z,99.35
2023-04-24T04:42:22.309Z,99.25
2023-04-24T04:43:22.314Z,99.25
2023-04-24T04:44:22.297Z,98.94
2023-04-24T04:45:22.283Z,98.94
2023-04-24T04:46:22.343Z,98.83
2023-04-24T04:47:22.294Z,98.83
2023-04-24T04:48:22.268Z,98.94
2023-04-24T04:49:22.233Z,98.94
2023-04-24T04:50:22.219Z,98.83
2023-04-24T04:51:22.214Z,98.63
2023-04-24T04:52:22.206Z,98.43
2023-04-24T04:53:22.204Z,98.33
2023-04-24T04:54:22.176Z,98.33
2023-04-24T04:55:22.177Z,98.43
2023-04-24T04:56:22.154Z,98.33
2023-04-24T04:57:22.148Z,98.43
2023-04-24T04:58:22.164Z,98.43
2023-04-24T04:59:22.123Z,98.33
2023-04-24T05:00:22.115Z,98.33
2023-04-24T05:01:22.136Z,98.12
2023-04-24T05:02:22.187Z,98.12
2023-04-24T05:03:22.211Z,98.12
2023-04-24T05:04:22.361Z,98.12
2023-04-24T05:05:22.054Z,98.22
2023-04-24T05:06:24.250Z,98.22
2023-04-24T05:07:22.039Z,98.12
2023-04-24T05:08:27.001Z,98.12
2023-04-24T05:09:22.019Z,98.12
2023-04-24T05:10:22.006Z,98.12
2023-04-24T05:11:21.993Z,98.12
2023-04-24T05:12:21.984Z,98.12
2023-04-24T05:13:35.575Z,98.02
2023-04-24T05:14:21.977Z,98.12
2023-04-24T05:15:21.950Z,98.12
2023-04-24T05:16:21.971Z,98.12
2023-04-24T05:17:21.960Z,98.12
2023-04-24T05:18:21.939Z,98.12
2023-04-24T05:19:21.940Z,98.12
2023-04-24T05:20:21.896Z,98.12
2023-04-24T05:21:21.905Z,97.97
2023-04-24T05:22:21.907Z,97.87
2023-04-24T05:23:21.872Z,98.02
2023-04-24T05:24:21.845Z,97.91
2023-04-24T05:25:21.834Z,96.84
2023-04-24T05:26:21.842Z,97.05
2023-04-24T05:27:21.815Z,97.15
2023-04-24T05:28:21.826Z,97.36
2023-04-24T05:29:21.829Z,97.46
2023-04-24T05:30:21.804Z,97.56
2023-04-24T05:31:21.809Z,97.56
2023-04-24T05:32:21.768Z,96.33
2023-04-24T05:33:21.778Z,96.54
2023-04-24T05:34:21.747Z,96.80
2023-04-24T05:35:21.742Z,97.00
2023-04-24T05:36:21.738Z,97.11
2023-04-24T05:37:21.728Z,97.11
2023-04-24T05:38:21.770Z,97.25
2023-04-24T05:39:28.244Z,97.36
2023-04-24T05:40:21.682Z,97.41
2023-04-24T05:41:21.668Z,97.56
2023-04-24T05:42:21.705Z,97.41
2023-04-24T05:43:21.689Z,97.52
2023-04-24T05:44:21.658Z,97.11
2023-04-24T05:45:21.638Z,97.31
2023-04-24T05:46:21.627Z,97.21
2023-04-24T05:47:21.614Z,97.21
2023-04-24T05:48:21.618Z,97.21
2023-04-24T05:49:21.632Z,97.27
2023-04-24T05:50:21.588Z,97.37
2023-04-24T05:51:21.587Z,97.37
2023-04-24T05:52:21.604Z,97.47
2023-04-24T05:53:21.543Z,97.47
2023-04-24T05:54:21.567Z,97.37
2023-04-24T05:55:21.521Z,97.37
2023-04-24T05:56:21.558Z,97.78
2023-04-24T05:57:21.547Z,97.88
2023-04-24T05:58:21.498Z,97.88
2023-04-24T05:59:21.560Z,97.88
2023-04-24T06:00:21.491Z,97.98
2023-04-24T06:01:21.484Z,98.08
2023-04-24T06:02:21.492Z,98.08
2023-04-24T06:03:21.555Z,98.08
2023-04-24T06:04:21.843Z,97.98
2023-04-24T06:05:21.466Z,96.75
2023-04-24T06:06:21.432Z,95.84
2023-04-24T06:07:21.405Z,95.79
2023-04-24T06:08:21.443Z,96.20
2023-04-24T06:09:21.405Z,96.20
2023-04-24T06:10:21.395Z,96.20
2023-04-24T06:11:21.341Z,94.46
2023-04-24T06:12:21.361Z,94.77
2023-04-24T06:13:21.351Z,95.38
2023-04-24T06:14:21.350Z,95.75
2023-04-24T06:15:21.311Z,95.75
2023-04-24T06:16:21.369Z,96.05
2023-04-24T06:17:21.347Z,96.05
2023-04-24T06:18:21.292Z,95.95
2023-04-24T06:19:21.285Z,96.05
2023-04-24T06:20:21.252Z,96.15
2023-04-24T06:21:21.229Z,95.13
2023-04-24T06:22:21.276Z,94.32
2023-04-24T06:23:21.251Z,95.09
2023-04-24T06:24:21.234Z,95.19
2023-04-24T06:25:21.198Z,95.29
2023-04-24T06:26:21.195Z,95.39
2023-04-24T06:27:21.193Z,95.80
2023-04-24T06:28:21.149Z,93.55
2023-04-24T06:29:21.196Z,94.17
2023-04-24T06:30:21.142Z,94.58
2023-04-24T06:31:21.171Z,94.58
2023-04-24T06:32:21.260Z,92.59
2023-04-24T06:33:23.005Z,92.90
2023-04-24T06:34:21.125Z,91.67
2023-04-24T06:35:21.076Z,92.19
2023-04-24T06:36:21.085Z,93.57
2023-04-24T06:37:21.049Z,94.08
2023-04-24T06:38:21.050Z,94.08
2023-04-24T06:39:21.070Z,93.98
2023-04-24T06:40:21.035Z,93.57
2023-04-24T06:41:20.998Z,93.57
2023-04-24T06:42:20.978Z,92.96
2023-04-24T06:43:20.971Z,93.16
2023-04-24T06:44:20.988Z,93.67
2023-04-24T06:45:21.021Z,93.88
2023-04-24T06:46:21.007Z,92.65
2023-04-24T06:47:20.972Z,93.67
2023-04-24T06:48:20.936Z,92.71
2023-04-24T06:49:21.006Z,93.32
2023-04-24T06:50:20.918Z,94.04
2023-04-24T06:51:20.900Z,93.93
2023-04-24T06:52:20.900Z,92.36
2023-04-24T06:53:20.888Z,92.26
2023-04-24T06:54:20.896Z,93.18
2023-04-24T06:55:20.870Z,92.26
2023-04-24T06:56:20.850Z,93.69
2023-04-24T06:57:21.044Z,93.99
2023-04-24T06:58:20.829Z,93.85
2023-04-24T06:59:20.819Z,93.95
2023-04-24T07:00:20.831Z,90.28
2023-04-24T07:01:20.819Z,92.42
2023-04-24T07:02:20.829Z,90.59
2023-04-24T07:03:20.926Z,91.56
2023-04-24T07:04:20.937Z,91.05
2023-04-24T07:05:20.767Z,91.77
2023-04-24T07:06:20.735Z,90.75
2023-04-24T07:07:20.722Z,88.51
2023-04-24T07:08:20.750Z,90.50
2023-04-24T07:09:20.746Z,87.29
2023-04-24T07:10:20.686Z,87.49
2023-04-24T07:11:20.683Z,90.24
2023-04-24T07:12:20.681Z,88.20
2023-04-24T07:13:20.659Z,88.26
2023-04-24T07:14:20.646Z,90.50
2023-04-24T07:15:20.731Z,90.91
2023-04-24T07:16:20.663Z,90.20
2023-04-24T07:17:20.671Z,88.98
2023-04-24T07:18:20.606Z,89.38
2023-04-24T07:19:21.033Z,88.46
2023-04-24T07:20:20.595Z,87.24
2023-04-24T07:21:20.630Z,89.85
2023-04-24T07:22:20.544Z,89.75
2023-04-24T07:23:20.559Z,90.77
2023-04-24T07:24:22.281Z,90.31
2023-04-24T07:25:20.572Z,90.22
2023-04-24T07:26:20.506Z,89.40
2023-04-24T07:27:20.538Z,89.61
2023-04-24T07:28:20.497Z,89.91
2023-04-24T07:29:20.497Z,89.70
2023-04-24T07:30:20.489Z,89.61
2023-04-24T07:31:20.525Z,85.43
2023-04-24T07:32:20.438Z,86.15
2023-04-24T07:33:20.481Z,86.25
2023-04-24T07:34:20.422Z,88.28
2023-04-24T07:35:20.400Z,89.09
2023-04-24T07:36:20.426Z,89.09
2023-04-24T07:37:20.489Z,89.81
2023-04-24T07:38:20.393Z,86.59
2023-04-24T07:39:20.411Z,86.90
2023-04-24T07:40:20.368Z,87.98
2023-04-24T07:41:20.358Z,87.77
2023-04-24T07:42:20.354Z,88.48
2023-04-24T07:43:20.338Z,85.13
2023-04-24T07:44:20.333Z,89.81
2023-04-24T07:45:20.287Z,89.81
2023-04-24T07:46:20.308Z,89.70
2023-04-24T07:47:20.284Z,88.08
2023-04-24T07:48:20.253Z,88.39
2023-04-24T07:49:20.281Z,87.57
2023-04-24T07:50:20.230Z,86.86
2023-04-24T07:51:20.215Z,85.13
2023-04-24T07:52:20.242Z,86.35
2023-04-24T07:53:20.208Z,87.23
2023-04-24T07:54:20.255Z,86.92
2023-04-24T07:55:23.249Z,85.39
2023-04-24T07:56:20.189Z,82.95
2023-04-24T07:57:20.179Z,85.70
2023-04-24T07:58:20.165Z,86.71
2023-04-24T07:59:20.146Z,83.76
2023-04-24T08:00:20.143Z,84.58
2023-04-24T08:01:20.120Z,82.75
2023-04-24T08:02:20.118Z,83.67
2023-04-24T08:03:20.199Z,84.99
2023-04-24T08:04:20.295Z,84.95
2023-04-24T08:05:20.224Z,85.55
2023-04-24T08:06:20.076Z,85.55
2023-04-24T08:07:20.062Z,85.86
2023-04-24T08:08:20.031Z,87.18
2023-04-24T08:09:20.063Z,86.98
2023-04-24T08:10:20.039Z,86.47
2023-04-24T08:11:20.002Z,86.68
2023-04-24T08:12:20.558Z,87.18
2023-04-24T08:13:19.975Z,87.49
2023-04-24T08:14:19.984Z,84.44
2023-04-24T08:15:19.955Z,87.29
2023-04-24T08:16:20.017Z,87.29
2023-04-24T08:17:19.943Z,85.86
2023-04-24T08:18:19.993Z,85.05
2023-04-24T08:19:19.942Z,84.54
2023-04-24T08:20:19.895Z,83.62
2023-04-24T08:21:19.921Z,84.95
2023-04-24T08:22:19.883Z,85.25
2023-04-24T08:23:19.873Z,85.66
2023-04-24T08:24:19.878Z,85.66
2023-04-24T08:25:19.868Z,84.64
2023-04-24T08:26:19.832Z,82.85
2023-04-24T08:27:19.810Z,84.07
2023-04-24T08:28:19.842Z,85.19
2023-04-24T08:29:19.850Z,85.90
2023-04-24T08:30:19.798Z,86.71
2023-04-24T08:31:19.780Z,87.73
2023-04-24T08:32:19.834Z,87.53
2023-04-24T08:33:19.749Z,87.38
2023-04-24T08:34:19.796Z,87.18
2023-04-24T08:35:19.731Z,87.59
2023-04-24T08:36:19.738Z,87.69
2023-04-24T08:37:19.708Z,86.37
2023-04-24T08:38:19.724Z,86.57
2023-04-24T08:39:19.712Z,85.76
2023-04-24T08:40:19.714Z,85.66
2023-04-24T08:41:19.679Z,81.79
2023-04-24T08:42:19.658Z,82.78
2023-04-24T08:43:19.643Z,82.26
2023-04-24T08:44:19.654Z,83.69
2023-04-24T08:45:19.616Z,83.48
2023-04-24T08:46:19.669Z,83.79
2023-04-24T08:47:19.608Z,83.45
2023-04-24T08:48:29.733Z,80.84
2023-04-24T08:49:19.598Z,80.80
2023-04-24T08:50:19.625Z,81.52
2023-04-24T08:51:19.556Z,83.24
2023-04-24T08:52:19.547Z,83.61
2023-04-24T08:53:19.518Z,82.50
2023-04-24T08:54:19.526Z,82.50
2023-04-24T08:55:19.498Z,81.18
2023-04-24T08:56:19.507Z,81.74
2023-04-24T08:57:19.513Z,81.04
2023-04-24T08:58:19.497Z,82.05
2023-04-24T08:59:19.481Z,78.53
2023-04-24T09:00:19.485Z,81.48
2023-04-24T09:01:19.486Z,78.64
2023-04-24T09:02:19.528Z,81.99
2023-04-24T09:03:19.508Z,79.69
2023-04-24T09:04:19.622Z,81.72
2023-04-24T09:05:19.408Z,82.73
2023-04-24T09:06:19.395Z,83.54
2023-04-24T09:07:19.398Z,84.16
2023-04-24T09:08:19.388Z,83.71
2023-04-24T09:09:19.371Z,82.64
2023-04-24T09:10:19.371Z,81.52
2023-04-24T09:11:19.347Z,81.52
2023-04-24T09:12:19.335Z,82.33
2023-04-24T09:13:19.310Z,83.31
2023-04-24T09:14:19.336Z,83.54
2023-04-24T09:15:19.277Z,80.60
2023-04-24T09:16:19.351Z,80.60
2023-04-24T09:17:19.264Z,82.26
2023-04-24T09:18:19.271Z,82.87
2023-04-24T09:19:19.261Z,83.69
2023-04-24T09:20:19.268Z,83.28
2023-04-24T09:21:19.216Z,83.69
2023-04-24T09:22:19.219Z,84.13
2023-04-24T09:23:19.198Z,82.51
2023-04-24T09:24:19.248Z,83.93
2023-04-24T09:25:19.176Z,85.05
2023-04-24T09:26:19.151Z,85.25
2023-04-24T09:27:19.142Z,81.33
2023-04-24T09:28:19.142Z,82.04
2023-04-24T09:29:19.155Z,83.36
2023-04-24T09:30:19.247Z,82.04
2023-04-24T09:31:19.251Z,83.06
2023-04-24T09:32:19.131Z,83.87
2023-04-24T09:33:19.081Z,84.38
2023-04-24T09:34:19.133Z,84.38
2023-04-24T09:35:19.077Z,85.80
2023-04-24T09:36:19.070Z,85.90
2023-04-24T09:37:19.230Z,85.90
2023-04-24T09:38:19.035Z,85.90
2023-04-24T09:39:19.032Z,86.51
2023-04-24T09:40:19.047Z,83.87
2023-04-24T09:41:18.988Z,84.13
2023-04-24T09:42:18.975Z,86.00
2023-04-24T09:43:18.980Z,84.17
2023-04-24T09:44:18.983Z,84.99
2023-04-24T09:45:18.955Z,84.78
2023-04-24T09:46:19.002Z,83.76
2023-04-24T09:47:18.959Z,84.28
2023-04-24T09:48:18.925Z,84.38
2023-04-24T09:49:18.924Z,84.99
2023-04-24T09:50:20.506Z,84.07
2023-04-24T09:51:18.911Z,85.39
2023-04-24T09:52:18.878Z,86.00
2023-04-24T09:53:18.864Z,85.90
2023-04-24T09:54:18.869Z,86.35
2023-04-24T09:55:18.831Z,86.96
2023-04-24T09:56:18.819Z,86.35
2023-04-24T09:57:18.826Z,86.25
2023-04-24T09:58:18.801Z,83.20
2023-04-24T09:59:18.817Z,85.94
2023-04-24T10:00:18.809Z,86.86
2023-04-24T10:01:18.825Z,83.81
2023-04-24T10:02:18.868Z,85.39
2023-04-24T10:03:18.773Z,83.26
2023-04-24T10:04:18.759Z,83.97
2023-04-24T10:05:18.730Z,80.55
2023-04-24T10:06:18.708Z,81.37
2023-04-24T10:07:18.706Z,83.91
2023-04-24T10:08:18.688Z,83.29
2023-04-24T10:09:18.711Z,83.87
2023-04-24T10:10:18.699Z,83.67
2023-04-24T10:11:18.706Z,83.76
2023-04-24T10:12:18.642Z,84.48
2023-04-24T10:13:18.671Z,83.53
2023-04-24T10:14:18.646Z,84.54
2023-04-24T10:15:18.694Z,82.81
2023-04-24T10:16:18.626Z,83.22
2023-04-24T10:17:18.610Z,82.51
2023-04-24T10:18:18.621Z,81.79
2023-04-24T10:19:18.575Z,81.90
2023-04-24T10:20:18.578Z,83.99
2023-04-24T10:21:18.554Z,83.08
2023-04-24T10:22:18.537Z,80.03
2023-04-24T10:23:18.570Z,80.88
2023-04-24T10:24:18.510Z,81.90
2023-04-24T10:25:18.510Z,80.07
2023-04-24T10:26:18.502Z,81.59
2023-04-24T10:27:18.480Z,82.81
2023-04-24T10:28:18.470Z,82.61
2023-04-24T10:29:18.468Z,82.10
2023-04-24T10:30:18.497Z,80.51
2023-04-24T10:31:18.461Z,83.06
2023-04-24T10:32:18.443Z,82.92
2023-04-24T10:33:18.423Z,83.22
2023-04-24T10:34:18.435Z,82.20
2023-04-24T10:35:18.403Z,83.01
2023-04-24T10:36:18.370Z,80.58
2023-04-24T10:37:18.358Z,81.39
2023-04-24T10:38:18.371Z,81.02
2023-04-24T10:39:18.351Z,83.32
2023-04-24T10:40:18.334Z,80.82
2023-04-24T10:41:18.314Z,79.80
2023-04-24T10:42:18.310Z,80.98
2023-04-24T10:43:18.307Z,81.49
2023-04-24T10:44:18.305Z,81.96
2023-04-24T10:45:18.284Z,82.87
2023-04-24T10:46:18.304Z,82.33
2023-04-24T10:47:18.261Z,81.92
2023-04-24T10:48:18.322Z,78.03
2023-04-24T10:49:18.243Z,77.22
2023-04-24T10:50:18.211Z,79.45
2023-04-24T10:51:18.208Z,77.22
2023-04-24T10:52:18.198Z,79.82
2023-04-24T10:53:18.183Z,79.72
2023-04-24T10:54:18.185Z,81.04
2023-04-24T10:55:18.150Z,80.63
2023-04-24T10:56:18.161Z,80.63
2023-04-24T10:57:18.141Z,78.33
2023-04-24T10:58:18.125Z,79.25
2023-04-24T10:59:18.105Z,79.55
2023-04-24T11:00:18.127Z,80.87
2023-04-24T11:01:18.117Z,80.97
2023-04-24T11:02:18.182Z,80.77
2023-04-24T11:03:18.330Z,79.55
2023-04-24T11:04:18.145Z,79.75
2023-04-24T11:05:18.083Z,76.95
2023-04-24T11:06:18.039Z,77.15
2023-04-24T11:07:18.027Z,79.04
2023-04-24T11:08:18.025Z,77.15
2023-04-24T11:09:18.002Z,75.83
2023-04-24T11:10:18.010Z,78.06
2023-04-24T11:11:17.992Z,79.35
2023-04-24T11:12:17.976Z,77.62
2023-04-24T11:13:17.993Z,78.33
2023-04-24T11:14:17.966Z,79.75
2023-04-24T11:15:17.961Z,80.02
2023-04-24T11:16:17.939Z,80.02
2023-04-24T11:17:17.907Z,78.16
2023-04-24T11:18:17.928Z,79.07
2023-04-24T11:19:17.896Z,78.66
2023-04-24T11:20:27.577Z,78.16
2023-04-24T11:21:17.941Z,77.95
2023-04-24T11:22:17.869Z,76.23
2023-04-24T11:23:17.930Z,76.23
2023-04-24T11:24:17.861Z,76.54
2023-04-24T11:25:17.838Z,78.50
2023-04-24T11:26:17.825Z,74.38
2023-04-24T11:27:17.822Z,77.12
2023-04-24T11:28:17.798Z,78.44
2023-04-24T11:29:20.234Z,78.27
2023-04-24T11:30:17.806Z,80.50
2023-04-24T11:31:17.757Z,81.82
2023-04-24T11:32:17.781Z,81.31
2023-04-24T11:33:17.762Z,77.39
2023-04-24T11:34:17.742Z,78.71
2023-04-24T11:35:17.756Z,76.92
2023-04-24T11:36:17.715Z,78.91
2023-04-24T11:37:17.711Z,79.22
2023-04-24T11:39:25.101Z,78.71
2023-04-24T11:40:17.691Z,77.70
2023-04-24T11:41:17.650Z,79.38
2023-04-24T11:42:17.645Z,79.99
2023-04-24T11:43:17.656Z,80.60
2023-04-24T11:44:17.633Z,74.92
2023-04-24T11:45:17.633Z,76.95
2023-04-24T11:46:17.675Z,77.62
2023-04-24T11:47:17.581Z,77.72
2023-04-24T11:48:17.561Z,77.52
2023-04-24T11:49:17.563Z,76.91
2023-04-24T11:50:17.548Z,77.12
2023-04-24T11:51:17.520Z,76.31
2023-04-24T11:52:17.533Z,76.81
2023-04-24T11:53:17.533Z,78.13
2023-04-24T11:54:17.521Z,77.45
2023-04-24T11:55:17.522Z,77.25
2023-04-24T11:56:17.484Z,77.86
2023-04-24T11:57:17.480Z,78.47
2023-04-24T11:58:17.467Z,77.70
2023-04-24T11:59:17.461Z,80.24
2023-04-24T12:00:17.741Z,80.64
2023-04-24T12:01:17.433Z,80.03
2023-04-24T12:02:17.452Z,79.97
2023-04-24T12:03:17.565Z,81.39
2023-04-24T12:04:17.856Z,80.47
2023-04-24T12:05:17.828Z,78.08
2023-04-24T12:06:17.404Z,80.21
2023-04-24T12:07:17.370Z,80.92
2023-04-24T12:08:17.351Z,81.12
2023-04-24T12:09:18.561Z,82.14
2023-04-24T12:10:17.362Z,81.84
2023-04-24T12:11:17.312Z,82.18
2023-04-24T12:12:17.308Z,82.99
2023-04-24T12:13:17.290Z,82.89
2023-04-24T12:14:17.432Z,82.59
2023-04-24T12:15:17.289Z,83.91
2023-04-24T12:16:17.311Z,84.52
2023-04-24T12:17:17.262Z,83.70
2023-04-24T12:18:17.264Z,82.59
2023-04-24T12:19:17.222Z,83.15
2023-04-24T12:20:17.251Z,84.48
2023-04-24T12:21:17.215Z,81.53
2023-04-24T12:22:17.191Z,81.02
2023-04-24T12:23:17.185Z,81.63
2023-04-24T12:24:17.168Z,78.62
2023-04-24T12:25:17.172Z,80.85
2023-04-24T12:26:17.169Z,82.48
2023-04-24T12:27:17.150Z,83.91
2023-04-24T12:28:17.121Z,82.28
2023-04-24T12:29:17.118Z,81.67
2023-04-24T12:30:17.126Z,79.94
2023-04-24T12:31:17.179Z,81.06
2023-04-24T12:32:17.063Z,82.38
2023-04-24T12:33:17.115Z,82.07
2023-04-24T12:34:17.053Z,81.98
2023-04-24T12:35:17.090Z,79.23
2023-04-24T12:36:17.049Z,78.41
2023-04-24T12:37:17.023Z,81.37
2023-04-24T12:38:17.027Z,82.18
2023-04-24T12:39:17.010Z,83.29
2023-04-24T12:40:16.998Z,83.50
2023-04-24T12:41:16.983Z,83.20
2023-04-24T12:42:16.977Z,83.29
2023-04-24T12:43:17.014Z,84.82
2023-04-24T12:44:16.938Z,81.16
2023-04-24T12:45:16.953Z,83.60
2023-04-24T12:46:18.358Z,84.62
2023-04-24T12:47:16.972Z,82.68
2023-04-24T12:48:16.982Z,82.89
2023-04-24T12:49:16.890Z,84.42
2023-04-24T12:50:16.907Z,84.72
2023-04-24T12:51:16.906Z,84.92
2023-04-24T12:52:16.869Z,81.26
2023-04-24T12:53:16.847Z,82.68